sensor_id;sensor_type;location;lat;lon;timestamp;P1;durP1;ratioP1;P2;durP2;ratioP2
21206;SDS011;10761;48.532;8.026;2022-10-31T00:01:34;10.23;;;3.20;;
21206;SDS011;10761;48.532;8.026;2022-10-31T00:04:02;12.90;;;3.22;;
21206;SDS011;10761;48.532;8.026;2022-10-31T00:06:28;8.35;;;3.97;;
21206;SDS011;10761;48.532;8.026;2022-10-31T00:08:58;9.52;;;3.67;;
21206;SDS011;10761;48.532;8.026;2022-10-31T00:11:26;11.97;;;3.60;;
21206;SDS011;10761;48.532;8.026;2022-10-31T00:13:52;8.88;;;3.78;;
21206;SDS011;10761;48.532;8.026;2022-10-31T00:16:19;7.72;;;3.75;;
21206;SDS011;10761;48.532;8.026;2022-10-31T00:18:52;11.93;;;3.80;;
21206;SDS011;10761;48.532;8.026;2022-10-31T00:21:20;7.20;;;3.47;;
21206;SDS011;10761;48.532;8.026;2022-10-31T00:23:46;10.80;;;3.65;;
21206;SDS011;10761;48.532;8.026;2022-10-31T00:26:12;12.52;;;3.65;;
21206;SDS011;10761;48.532;8.026;2022-10-31T00:28:38;7.05;;;3.55;;
21206;SDS011;10761;48.532;8.026;2022-10-31T00:31:04;11.75;;;4.18;;
21206;SDS011;10761;48.532;8.026;2022-10-31T00:33:33;9.88;;;4.10;;
21206;SDS011;10761;48.532;8.026;2022-10-31T00:36:01;7.18;;;3.90;;
21206;SDS011;10761;48.532;8.026;2022-10-31T00:38:27;13.50;;;4.38;;
21206;SDS011;10761;48.532;8.026;2022-10-31T00:40:53;11.52;;;4.00;;
21206;SDS011;10761;48.532;8.026;2022-10-31T00:43:19;12.95;;;4.82;;
21206;SDS011;10761;48.532;8.026;2022-10-31T00:45:44;8.02;;;3.97;;
21206;SDS011;10761;48.532;8.026;2022-10-31T00:48:10;13.63;;;4.15;;
21206;SDS011;10761;48.532;8.026;2022-10-31T00:50:36;11.07;;;4.13;;
21206;SDS011;10761;48.532;8.026;2022-10-31T00:53:01;9.88;;;4.20;;
21206;SDS011;10761;48.532;8.026;2022-10-31T00:55:27;10.98;;;3.90;;
21206;SDS011;10761;48.532;8.026;2022-10-31T00:57:53;10.30;;;3.80;;
21206;SDS011;10761;48.532;8.026;2022-10-31T01:00:18;11.02;;;4.15;;
21206;SDS011;10761;48.532;8.026;2022-10-31T01:02:44;8.20;;;3.75;;
21206;SDS011;10761;48.532;8.026;2022-10-31T01:05:10;9.63;;;3.90;;
21206;SDS011;10761;48.532;8.026;2022-10-31T01:07:36;10.05;;;4.00;;
21206;SDS011;10761;48.532;8.026;2022-10-31T01:10:03;10.35;;;3.83;;
21206;SDS011;10761;48.532;8.026;2022-10-31T01:12:29;7.85;;;3.55;;
21206;SDS011;10761;48.532;8.026;2022-10-31T01:15:00;12.93;;;4.28;;
21206;SDS011;10761;48.532;8.026;2022-10-31T01:17:25;10.50;;;3.75;;
21206;SDS011;10761;48.532;8.026;2022-10-31T01:19:51;13.60;;;4.38;;
21206;SDS011;10761;48.532;8.026;2022-10-31T01:22:17;8.60;;;3.67;;
21206;SDS011;10761;48.532;8.026;2022-10-31T01:24:42;9.90;;;3.72;;
21206;SDS011;10761;48.532;8.026;2022-10-31T01:27:08;13.23;;;3.78;;
21206;SDS011;10761;48.532;8.026;2022-10-31T01:29:33;11.00;;;4.28;;
21206;SDS011;10761;48.532;8.026;2022-10-31T01:31:59;6.13;;;3.75;;
21206;SDS011;10761;48.532;8.026;2022-10-31T01:34:25;8.20;;;4.03;;
21206;SDS011;10761;48.532;8.026;2022-10-31T01:36:50;12.07;;;3.95;;
21206;SDS011;10761;48.532;8.026;2022-10-31T01:39:17;6.18;;;3.60;;
21206;SDS011;10761;48.532;8.026;2022-10-31T01:41:44;9.18;;;4.00;;
21206;SDS011;10761;48.532;8.026;2022-10-31T01:49:24;10.18;;;3.95;;
21206;SDS011;10761;48.532;8.026;2022-10-31T01:52:00;10.45;;;4.05;;
21206;SDS011;10761;48.532;8.026;2022-10-31T01:54:31;10.15;;;4.50;;
21206;SDS011;10761;48.532;8.026;2022-10-31T01:57:01;11.23;;;4.70;;
21206;SDS011;10761;48.532;8.026;2022-10-31T01:59:29;7.88;;;4.35;;
21206;SDS011;10761;48.532;8.026;2022-10-31T02:01:57;15.35;;;4.60;;
21206;SDS011;10761;48.532;8.026;2022-10-31T02:04:23;14.27;;;4.97;;
21206;SDS011;10761;48.532;8.026;2022-10-31T02:06:54;15.23;;;4.43;;
21206;SDS011;10761;48.532;8.026;2022-10-31T02:09:25;11.93;;;4.47;;
21206;SDS011;10761;48.532;8.026;2022-10-31T02:11:52;12.25;;;5.43;;
21206;SDS011;10761;48.532;8.026;2022-10-31T02:14:26;13.88;;;5.72;;
21206;SDS011;10761;48.532;8.026;2022-10-31T02:16:54;15.30;;;5.95;;
21206;SDS011;10761;48.532;8.026;2022-10-31T02:19:33;10.48;;;5.68;;
21206;SDS011;10761;48.532;8.026;2022-10-31T02:22:16;12.18;;;5.70;;
21206;SDS011;10761;48.532;8.026;2022-10-31T02:24:57;10.88;;;5.63;;
21206;SDS011;10761;48.532;8.026;2022-10-31T02:33:19;13.70;;;6.30;;
21206;SDS011;10761;48.532;8.026;2022-10-31T02:36:11;13.60;;;5.72;;
21206;SDS011;10761;48.532;8.026;2022-10-31T02:43:54;11.10;;;6.18;;
21206;SDS011;10761;48.532;8.026;2022-10-31T02:46:47;11.20;;;5.75;;
21206;SDS011;10761;48.532;8.026;2022-10-31T02:49:21;12.52;;;5.95;;
21206;SDS011;10761;48.532;8.026;2022-10-31T02:51:47;15.40;;;6.53;;
21206;SDS011;10761;48.532;8.026;2022-10-31T02:54:21;9.82;;;4.60;;
21206;SDS011;10761;48.532;8.026;2022-10-31T02:56:49;12.23;;;5.43;;
21206;SDS011;10761;48.532;8.026;2022-10-31T02:59:19;11.18;;;5.38;;
21206;SDS011;10761;48.532;8.026;2022-10-31T03:07:44;9.30;;;4.55;;
21206;SDS011;10761;48.532;8.026;2022-10-31T03:10:31;15.32;;;5.32;;
21206;SDS011;10761;48.532;8.026;2022-10-31T03:15:53;11.20;;;4.82;;
21206;SDS011;10761;48.532;8.026;2022-10-31T03:18:28;8.65;;;4.90;;
21206;SDS011;10761;48.532;8.026;2022-10-31T03:24:04;12.60;;;5.00;;
21206;SDS011;10761;48.532;8.026;2022-10-31T03:26:31;7.20;;;4.80;;
21206;SDS011;10761;48.532;8.026;2022-10-31T03:29:02;9.20;;;5.32;;
21206;SDS011;10761;48.532;8.026;2022-10-31T03:31:32;9.75;;;4.78;;
21206;SDS011;10761;48.532;8.026;2022-10-31T03:34:02;8.90;;;5.20;;
21206;SDS011;10761;48.532;8.026;2022-10-31T03:36:32;8.68;;;5.05;;
21206;SDS011;10761;48.532;8.026;2022-10-31T03:39:01;13.15;;;5.38;;
21206;SDS011;10761;48.532;8.026;2022-10-31T03:41:31;14.38;;;4.72;;
21206;SDS011;10761;48.532;8.026;2022-10-31T03:44:01;11.53;;;5.00;;
21206;SDS011;10761;48.532;8.026;2022-10-31T03:46:32;12.30;;;5.05;;
21206;SDS011;10761;48.532;8.026;2022-10-31T03:48:57;10.90;;;4.63;;
21206;SDS011;10761;48.532;8.026;2022-10-31T03:51:25;9.63;;;4.57;;
21206;SDS011;10761;48.532;8.026;2022-10-31T03:54:23;12.80;;;4.75;;
21206;SDS011;10761;48.532;8.026;2022-10-31T03:57:21;12.07;;;4.88;;
21206;SDS011;10761;48.532;8.026;2022-10-31T03:59:56;6.85;;;4.80;;
21206;SDS011;10761;48.532;8.026;2022-10-31T04:02:34;9.38;;;4.82;;
21206;SDS011;10761;48.532;8.026;2022-10-31T04:05:05;9.68;;;5.35;;
21206;SDS011;10761;48.532;8.026;2022-10-31T04:07:34;9.27;;;5.35;;
21206;SDS011;10761;48.532;8.026;2022-10-31T04:10:04;12.20;;;4.93;;
21206;SDS011;10761;48.532;8.026;2022-10-31T04:12:34;10.65;;;5.03;;
21206;SDS011;10761;48.532;8.026;2022-10-31T04:15:03;11.55;;;4.70;;
21206;SDS011;10761;48.532;8.026;2022-10-31T04:17:31;9.35;;;4.88;;
21206;SDS011;10761;48.532;8.026;2022-10-31T04:20:00;9.05;;;4.38;;
21206;SDS011;10761;48.532;8.026;2022-10-31T04:22:26;9.23;;;4.60;;
21206;SDS011;10761;48.532;8.026;2022-10-31T04:24:51;8.68;;;4.57;;
21206;SDS011;10761;48.532;8.026;2022-10-31T04:27:17;14.63;;;4.30;;
21206;SDS011;10761;48.532;8.026;2022-10-31T04:29:42;11.48;;;5.22;;
21206;SDS011;10761;48.532;8.026;2022-10-31T04:32:08;9.32;;;4.63;;
21206;SDS011;10761;48.532;8.026;2022-10-31T04:34:34;10.88;;;4.90;;
21206;SDS011;10761;48.532;8.026;2022-10-31T04:37:00;13.75;;;5.68;;
21206;SDS011;10761;48.532;8.026;2022-10-31T04:39:25;11.95;;;5.60;;
21206;SDS011;10761;48.532;8.026;2022-10-31T04:41:51;9.38;;;6.40;;
21206;SDS011;10761;48.532;8.026;2022-10-31T04:44:16;13.13;;;6.22;;
21206;SDS011;10761;48.532;8.026;2022-10-31T04:46:42;14.00;;;7.60;;
21206;SDS011;10761;48.532;8.026;2022-10-31T04:49:07;9.63;;;7.15;;
21206;SDS011;10761;48.532;8.026;2022-10-31T04:51:33;16.13;;;6.70;;
21206;SDS011;10761;48.532;8.026;2022-10-31T04:53:59;10.00;;;6.18;;
21206;SDS011;10761;48.532;8.026;2022-10-31T04:56:24;18.15;;;6.35;;
21206;SDS011;10761;48.532;8.026;2022-10-31T04:58:50;14.50;;;5.65;;
21206;SDS011;10761;48.532;8.026;2022-10-31T05:01:16;13.88;;;9.65;;
21206;SDS011;10761;48.532;8.026;2022-10-31T05:03:41;10.02;;;7.15;;
21206;SDS011;10761;48.532;8.026;2022-10-31T05:06:07;15.95;;;6.50;;
21206;SDS011;10761;48.532;8.026;2022-10-31T05:08:33;11.02;;;5.72;;
21206;SDS011;10761;48.532;8.026;2022-10-31T05:11:02;10.07;;;5.45;;
21206;SDS011;10761;48.532;8.026;2022-10-31T05:13:28;9.02;;;5.15;;
21206;SDS011;10761;48.532;8.026;2022-10-31T05:15:54;8.90;;;5.13;;
21206;SDS011;10761;48.532;8.026;2022-10-31T05:18:20;8.52;;;4.72;;
21206;SDS011;10761;48.532;8.026;2022-10-31T05:20:45;9.25;;;4.95;;
21206;SDS011;10761;48.532;8.026;2022-10-31T05:23:11;12.50;;;5.85;;
21206;SDS011;10761;48.532;8.026;2022-10-31T05:25:37;9.70;;;5.30;;
21206;SDS011;10761;48.532;8.026;2022-10-31T05:28:04;15.43;;;6.53;;
21206;SDS011;10761;48.532;8.026;2022-10-31T05:30:30;11.82;;;5.70;;
21206;SDS011;10761;48.532;8.026;2022-10-31T05:32:56;10.63;;;5.38;;
21206;SDS011;10761;48.532;8.026;2022-10-31T05:35:26;10.98;;;5.32;;
21206;SDS011;10761;48.532;8.026;2022-10-31T05:37:53;11.32;;;4.95;;
21206;SDS011;10761;48.532;8.026;2022-10-31T05:40:20;12.20;;;4.97;;
21206;SDS011;10761;48.532;8.026;2022-10-31T05:42:46;8.48;;;4.50;;
21206;SDS011;10761;48.532;8.026;2022-10-31T05:45:14;11.20;;;5.32;;
21206;SDS011;10761;48.532;8.026;2022-10-31T05:47:40;12.00;;;5.55;;
21206;SDS011;10761;48.532;8.026;2022-10-31T05:50:07;10.98;;;5.22;;
21206;SDS011;10761;48.532;8.026;2022-10-31T05:52:33;11.23;;;4.90;;
21206;SDS011;10761;48.532;8.026;2022-10-31T05:54:59;13.10;;;5.15;;
21206;SDS011;10761;48.532;8.026;2022-10-31T05:57:25;9.23;;;4.50;;
21206;SDS011;10761;48.532;8.026;2022-10-31T05:59:51;6.72;;;4.20;;
21206;SDS011;10761;48.532;8.026;2022-10-31T06:02:18;9.95;;;5.03;;
21206;SDS011;10761;48.532;8.026;2022-10-31T06:04:44;10.63;;;5.32;;
21206;SDS011;10761;48.532;8.026;2022-10-31T06:07:10;7.72;;;4.68;;
21206;SDS011;10761;48.532;8.026;2022-10-31T06:09:35;10.50;;;5.22;;
21206;SDS011;10761;48.532;8.026;2022-10-31T06:12:01;8.52;;;4.97;;
21206;SDS011;10761;48.532;8.026;2022-10-31T06:14:27;19.48;;;5.00;;
21206;SDS011;10761;48.532;8.026;2022-10-31T06:16:53;7.68;;;4.72;;
21206;SDS011;10761;48.532;8.026;2022-10-31T06:19:19;9.65;;;5.38;;
21206;SDS011;10761;48.532;8.026;2022-10-31T06:21:45;10.88;;;5.50;;
21206;SDS011;10761;48.532;8.026;2022-10-31T06:24:10;10.02;;;5.03;;
21206;SDS011;10761;48.532;8.026;2022-10-31T06:26:36;8.68;;;5.55;;
21206;SDS011;10761;48.532;8.026;2022-10-31T06:29:02;10.65;;;5.68;;
21206;SDS011;10761;48.532;8.026;2022-10-31T06:31:27;9.18;;;5.20;;
21206;SDS011;10761;48.532;8.026;2022-10-31T06:33:53;9.13;;;5.18;;
21206;SDS011;10761;48.532;8.026;2022-10-31T06:36:19;13.43;;;5.72;;
21206;SDS011;10761;48.532;8.026;2022-10-31T06:38:44;11.80;;;4.95;;
21206;SDS011;10761;48.532;8.026;2022-10-31T06:41:10;13.65;;;5.22;;
21206;SDS011;10761;48.532;8.026;2022-10-31T06:43:35;10.20;;;5.05;;
21206;SDS011;10761;48.532;8.026;2022-10-31T06:46:02;9.50;;;5.20;;
21206;SDS011;10761;48.532;8.026;2022-10-31T06:48:28;10.15;;;4.95;;
21206;SDS011;10761;48.532;8.026;2022-10-31T06:50:57;7.90;;;4.53;;
21206;SDS011;10761;48.532;8.026;2022-10-31T06:53:23;9.45;;;4.65;;
21206;SDS011;10761;48.532;8.026;2022-10-31T06:55:49;10.20;;;4.75;;
21206;SDS011;10761;48.532;8.026;2022-10-31T06:58:15;8.75;;;4.28;;
21206;SDS011;10761;48.532;8.026;2022-10-31T07:00:40;7.68;;;3.95;;
21206;SDS011;10761;48.532;8.026;2022-10-31T07:03:07;13.45;;;4.72;;
21206;SDS011;10761;48.532;8.026;2022-10-31T07:05:36;12.57;;;4.78;;
21206;SDS011;10761;48.532;8.026;2022-10-31T07:08:04;8.23;;;4.43;;
21206;SDS011;10761;48.532;8.026;2022-10-31T07:10:32;12.27;;;4.75;;
21206;SDS011;10761;48.532;8.026;2022-10-31T07:12:59;9.93;;;4.82;;
21206;SDS011;10761;48.532;8.026;2022-10-31T07:15:26;10.65;;;4.53;;
21206;SDS011;10761;48.532;8.026;2022-10-31T07:17:53;12.20;;;5.20;;
21206;SDS011;10761;48.532;8.026;2022-10-31T07:20:19;10.80;;;4.72;;
21206;SDS011;10761;48.532;8.026;2022-10-31T07:22:45;10.82;;;5.07;;
21206;SDS011;10761;48.532;8.026;2022-10-31T07:25:11;9.82;;;4.90;;
21206;SDS011;10761;48.532;8.026;2022-10-31T07:27:37;7.28;;;4.25;;
21206;SDS011;10761;48.532;8.026;2022-10-31T07:30:04;10.55;;;5.00;;
21206;SDS011;10761;48.532;8.026;2022-10-31T07:32:40;9.05;;;4.78;;
21206;SDS011;10761;48.532;8.026;2022-10-31T07:35:09;10.88;;;4.53;;
21206;SDS011;10761;48.532;8.026;2022-10-31T07:37:37;11.55;;;4.97;;
21206;SDS011;10761;48.532;8.026;2022-10-31T07:40:04;9.50;;;4.45;;
21206;SDS011;10761;48.532;8.026;2022-10-31T07:42:34;6.55;;;4.00;;
21206;SDS011;10761;48.532;8.026;2022-10-31T07:45:04;10.30;;;4.47;;
21206;SDS011;10761;48.532;8.026;2022-10-31T07:47:44;8.63;;;4.60;;
21206;SDS011;10761;48.532;8.026;2022-10-31T07:50:12;13.77;;;4.32;;
21206;SDS011;10761;48.532;8.026;2022-10-31T07:52:40;6.13;;;4.20;;
21206;SDS011;10761;48.532;8.026;2022-10-31T07:55:05;8.80;;;4.97;;
21206;SDS011;10761;48.532;8.026;2022-10-31T07:57:32;8.55;;;4.28;;
21206;SDS011;10761;48.532;8.026;2022-10-31T07:59:57;11.57;;;4.47;;
21206;SDS011;10761;48.532;8.026;2022-10-31T08:02:23;10.60;;;4.07;;
21206;SDS011;10761;48.532;8.026;2022-10-31T08:04:49;10.35;;;5.00;;
21206;SDS011;10761;48.532;8.026;2022-10-31T08:07:15;9.88;;;4.30;;
21206;SDS011;10761;48.532;8.026;2022-10-31T08:09:41;11.73;;;6.03;;
21206;SDS011;10761;48.532;8.026;2022-10-31T08:12:06;9.40;;;5.28;;
21206;SDS011;10761;48.532;8.026;2022-10-31T08:14:32;8.98;;;5.05;;
21206;SDS011;10761;48.532;8.026;2022-10-31T08:16:57;9.25;;;4.80;;
21206;SDS011;10761;48.532;8.026;2022-10-31T08:19:23;9.15;;;5.22;;
21206;SDS011;10761;48.532;8.026;2022-10-31T08:21:52;13.18;;;5.60;;
21206;SDS011;10761;48.532;8.026;2022-10-31T08:24:20;8.90;;;4.53;;
21206;SDS011;10761;48.532;8.026;2022-10-31T08:26:46;14.63;;;4.13;;
21206;SDS011;10761;48.532;8.026;2022-10-31T08:29:12;9.00;;;5.15;;
21206;SDS011;10761;48.532;8.026;2022-10-31T08:31:39;11.82;;;5.25;;
21206;SDS011;10761;48.532;8.026;2022-10-31T08:34:05;13.38;;;6.28;;
21206;SDS011;10761;48.532;8.026;2022-10-31T08:36:30;12.73;;;6.70;;
21206;SDS011;10761;48.532;8.026;2022-10-31T08:38:56;14.68;;;5.78;;
21206;SDS011;10761;48.532;8.026;2022-10-31T08:41:22;9.90;;;4.90;;
21206;SDS011;10761;48.532;8.026;2022-10-31T08:43:47;11.88;;;5.07;;
21206;SDS011;10761;48.532;8.026;2022-10-31T08:46:13;14.13;;;4.70;;
21206;SDS011;10761;48.532;8.026;2022-10-31T08:48:39;13.63;;;4.97;;
21206;SDS011;10761;48.532;8.026;2022-10-31T08:51:05;8.68;;;4.30;;
21206;SDS011;10761;48.532;8.026;2022-10-31T08:53:31;13.65;;;4.85;;
21206;SDS011;10761;48.532;8.026;2022-10-31T08:55:57;7.55;;;4.53;;
21206;SDS011;10761;48.532;8.026;2022-10-31T08:58:23;11.98;;;4.55;;
21206;SDS011;10761;48.532;8.026;2022-10-31T09:00:50;11.65;;;5.07;;
21206;SDS011;10761;48.532;8.026;2022-10-31T09:03:20;11.05;;;4.68;;
21206;SDS011;10761;48.532;8.026;2022-10-31T09:05:50;11.05;;;4.45;;
21206;SDS011;10761;48.532;8.026;2022-10-31T09:08:19;8.65;;;4.43;;
21206;SDS011;10761;48.532;8.026;2022-10-31T09:10:45;8.70;;;4.57;;
21206;SDS011;10761;48.532;8.026;2022-10-31T09:13:15;11.20;;;5.07;;
21206;SDS011;10761;48.532;8.026;2022-10-31T09:15:42;10.57;;;4.93;;
21206;SDS011;10761;48.532;8.026;2022-10-31T09:18:10;14.88;;;5.05;;
21206;SDS011;10761;48.532;8.026;2022-10-31T09:20:37;10.95;;;4.88;;
21206;SDS011;10761;48.532;8.026;2022-10-31T09:23:05;9.68;;;4.40;;
21206;SDS011;10761;48.532;8.026;2022-10-31T09:25:36;11.40;;;5.47;;
21206;SDS011;10761;48.532;8.026;2022-10-31T09:28:02;10.18;;;4.75;;
21206;SDS011;10761;48.532;8.026;2022-10-31T09:30:30;11.23;;;4.72;;
21206;SDS011;10761;48.532;8.026;2022-10-31T09:32:58;9.73;;;4.50;;
21206;SDS011;10761;48.532;8.026;2022-10-31T09:35:25;15.00;;;5.60;;
21206;SDS011;10761;48.532;8.026;2022-10-31T09:37:55;9.35;;;4.68;;
21206;SDS011;10761;48.532;8.026;2022-10-31T09:40:23;13.50;;;5.35;;
21206;SDS011;10761;48.532;8.026;2022-10-31T09:43:15;11.65;;;5.10;;
21206;SDS011;10761;48.532;8.026;2022-10-31T09:51:24;14.57;;;5.63;;
21206;SDS011;10761;48.532;8.026;2022-10-31T09:54:14;14.13;;;5.60;;
21206;SDS011;10761;48.532;8.026;2022-10-31T09:56:43;11.95;;;6.13;;
21206;SDS011;10761;48.532;8.026;2022-10-31T09:59:16;13.35;;;5.28;;
21206;SDS011;10761;48.532;8.026;2022-10-31T10:06:59;13.95;;;5.20;;
21206;SDS011;10761;48.532;8.026;2022-10-31T10:09:30;15.90;;;5.57;;
21206;SDS011;10761;48.532;8.026;2022-10-31T10:17:46;10.27;;;5.10;;
21206;SDS011;10761;48.532;8.026;2022-10-31T10:20:52;13.98;;;5.38;;
21206;SDS011;10761;48.532;8.026;2022-10-31T10:29:15;11.43;;;5.78;;
21206;SDS011;10761;48.532;8.026;2022-10-31T10:32:18;16.17;;;6.28;;
21206;SDS011;10761;48.532;8.026;2022-10-31T10:34:49;19.23;;;6.50;;
21206;SDS011;10761;48.532;8.026;2022-10-31T10:37:21;10.52;;;6.07;;
21206;SDS011;10761;48.532;8.026;2022-10-31T10:39:53;10.30;;;5.93;;
21206;SDS011;10761;48.532;8.026;2022-10-31T10:42:21;14.40;;;5.97;;
21206;SDS011;10761;48.532;8.026;2022-10-31T10:45:14;13.95;;;5.90;;
21206;SDS011;10761;48.532;8.026;2022-10-31T10:48:14;17.20;;;5.93;;
21206;SDS011;10761;48.532;8.026;2022-10-31T10:50:42;12.93;;;5.50;;
21206;SDS011;10761;48.532;8.026;2022-10-31T10:58:50;12.90;;;6.38;;
21206;SDS011;10761;48.532;8.026;2022-10-31T11:01:18;11.15;;;5.60;;
21206;SDS011;10761;48.532;8.026;2022-10-31T11:03:43;16.10;;;5.75;;
21206;SDS011;10761;48.532;8.026;2022-10-31T11:06:19;11.68;;;5.57;;
21206;SDS011;10761;48.532;8.026;2022-10-31T11:08:50;11.48;;;5.75;;
21206;SDS011;10761;48.532;8.026;2022-10-31T11:13:42;10.93;;;5.88;;
21206;SDS011;10761;48.532;8.026;2022-10-31T11:16:14;11.43;;;6.30;;
21206;SDS011;10761;48.532;8.026;2022-10-31T11:18:52;12.23;;;5.70;;
21206;SDS011;10761;48.532;8.026;2022-10-31T11:21:23;7.68;;;5.30;;
21206;SDS011;10761;48.532;8.026;2022-10-31T11:24:01;14.82;;;5.85;;
21206;SDS011;10761;48.532;8.026;2022-10-31T11:26:39;20.85;;;5.63;;
21206;SDS011;10761;48.532;8.026;2022-10-31T11:29:23;9.80;;;5.10;;
21206;SDS011;10761;48.532;8.026;2022-10-31T11:31:50;14.35;;;5.20;;
21206;SDS011;10761;48.532;8.026;2022-10-31T11:34:25;10.10;;;4.78;;
21206;SDS011;10761;48.532;8.026;2022-10-31T11:37:02;9.85;;;4.55;;
21206;SDS011;10761;48.532;8.026;2022-10-31T11:41:54;7.88;;;4.13;;
21206;SDS011;10761;48.532;8.026;2022-10-31T11:44:27;13.50;;;4.40;;
21206;SDS011;10761;48.532;8.026;2022-10-31T11:46:55;14.30;;;4.93;;
21206;SDS011;10761;48.532;8.026;2022-10-31T11:54:41;10.88;;;4.70;;
21206;SDS011;10761;48.532;8.026;2022-10-31T11:57:25;14.27;;;4.65;;
21206;SDS011;10761;48.532;8.026;2022-10-31T12:00:02;10.55;;;4.72;;
21206;SDS011;10761;48.532;8.026;2022-10-31T12:02:29;8.55;;;4.78;;
21206;SDS011;10761;48.532;8.026;2022-10-31T12:05:08;14.20;;;5.60;;
21206;SDS011;10761;48.532;8.026;2022-10-31T12:07:42;13.18;;;5.78;;
21206;SDS011;10761;48.532;8.026;2022-10-31T12:10:12;11.75;;;5.47;;
21206;SDS011;10761;48.532;8.026;2022-10-31T12:15:42;12.35;;;5.32;;
21206;SDS011;10761;48.532;8.026;2022-10-31T12:21:54;15.00;;;5.40;;
21206;SDS011;10761;48.532;8.026;2022-10-31T12:27:22;16.63;;;5.57;;
21206;SDS011;10761;48.532;8.026;2022-10-31T12:33:28;14.90;;;6.53;;
21206;SDS011;10761;48.532;8.026;2022-10-31T12:35:55;10.27;;;5.72;;
21206;SDS011;10761;48.532;8.026;2022-10-31T12:49:07;14.65;;;5.50;;
21206;SDS011;10761;48.532;8.026;2022-10-31T13:02:20;15.15;;;8.13;;
21206;SDS011;10761;48.532;8.026;2022-10-31T13:05:00;14.65;;;6.10;;
21206;SDS011;10761;48.532;8.026;2022-10-31T13:07:50;12.10;;;5.25;;
21206;SDS011;10761;48.532;8.026;2022-10-31T13:10:25;11.13;;;6.55;;
21206;SDS011;10761;48.532;8.026;2022-10-31T13:12:57;13.07;;;4.88;;
21206;SDS011;10761;48.532;8.026;2022-10-31T13:15:31;11.85;;;5.57;;
21206;SDS011;10761;48.532;8.026;2022-10-31T13:18:04;12.88;;;5.75;;
21206;SDS011;10761;48.532;8.026;2022-10-31T13:20:43;13.60;;;5.50;;
21206;SDS011;10761;48.532;8.026;2022-10-31T13:23:33;11.07;;;5.80;;
21206;SDS011;10761;48.532;8.026;2022-10-31T13:26:08;12.13;;;5.70;;
21206;SDS011;10761;48.532;8.026;2022-10-31T13:28:46;12.52;;;5.38;;
21206;SDS011;10761;48.532;8.026;2022-10-31T13:31:21;12.15;;;5.75;;
21206;SDS011;10761;48.532;8.026;2022-10-31T13:33:48;13.52;;;5.28;;
21206;SDS011;10761;48.532;8.026;2022-10-31T13:39:44;17.30;;;5.68;;
21206;SDS011;10761;48.532;8.026;2022-10-31T13:42:18;10.07;;;5.18;;
21206;SDS011;10761;48.532;8.026;2022-10-31T13:44:44;12.05;;;5.32;;
21206;SDS011;10761;48.532;8.026;2022-10-31T13:50:02;10.25;;;4.82;;
21206;SDS011;10761;48.532;8.026;2022-10-31T13:52:44;13.13;;;5.13;;
21206;SDS011;10761;48.532;8.026;2022-10-31T13:58:28;10.60;;;5.70;;
21206;SDS011;10761;48.532;8.026;2022-10-31T14:03:39;14.50;;;5.40;;
21206;SDS011;10761;48.532;8.026;2022-10-31T14:06:08;12.20;;;5.88;;
21206;SDS011;10761;48.532;8.026;2022-10-31T14:08:36;15.20;;;6.60;;
21206;SDS011;10761;48.532;8.026;2022-10-31T14:11:05;13.50;;;6.05;;
21206;SDS011;10761;48.532;8.026;2022-10-31T14:13:35;15.68;;;6.55;;
21206;SDS011;10761;48.532;8.026;2022-10-31T14:18:42;11.68;;;6.47;;
21206;SDS011;10761;48.532;8.026;2022-10-31T14:21:25;10.85;;;5.93;;
21206;SDS011;10761;48.532;8.026;2022-10-31T14:23:56;15.18;;;6.50;;
21206;SDS011;10761;48.532;8.026;2022-10-31T14:28:50;16.88;;;7.20;;
21206;SDS011;10761;48.532;8.026;2022-10-31T14:31:34;12.77;;;7.25;;
21206;SDS011;10761;48.532;8.026;2022-10-31T14:39:55;13.60;;;7.03;;
21206;SDS011;10761;48.532;8.026;2022-10-31T14:42:36;17.00;;;7.00;;
21206;SDS011;10761;48.532;8.026;2022-10-31T14:51:07;13.00;;;7.75;;
21206;SDS011;10761;48.532;8.026;2022-10-31T14:53:45;13.63;;;7.60;;
21206;SDS011;10761;48.532;8.026;2022-10-31T14:56:19;16.83;;;7.82;;
21206;SDS011;10761;48.532;8.026;2022-10-31T14:58:49;16.52;;;8.63;;
21206;SDS011;10761;48.532;8.026;2022-10-31T15:01:21;21.95;;;11.85;;
21206;SDS011;10761;48.532;8.026;2022-10-31T15:03:58;19.60;;;10.52;;
21206;SDS011;10761;48.532;8.026;2022-10-31T15:06:31;18.05;;;9.60;;
21206;SDS011;10761;48.532;8.026;2022-10-31T15:09:32;20.65;;;9.50;;
21206;SDS011;10761;48.532;8.026;2022-10-31T15:11:59;15.00;;;8.82;;
21206;SDS011;10761;48.532;8.026;2022-10-31T15:14:27;15.18;;;8.35;;
21206;SDS011;10761;48.532;8.026;2022-10-31T15:16:58;16.08;;;9.00;;
21206;SDS011;10761;48.532;8.026;2022-10-31T15:19:27;15.40;;;8.32;;
21206;SDS011;10761;48.532;8.026;2022-10-31T15:21:55;17.45;;;8.13;;
21206;SDS011;10761;48.532;8.026;2022-10-31T15:24:23;17.73;;;8.85;;
21206;SDS011;10761;48.532;8.026;2022-10-31T15:29:23;17.30;;;9.10;;
21206;SDS011;10761;48.532;8.026;2022-10-31T15:31:51;19.20;;;9.18;;
21206;SDS011;10761;48.532;8.026;2022-10-31T15:34:30;21.20;;;11.43;;
21206;SDS011;10761;48.532;8.026;2022-10-31T15:36:58;16.25;;;8.95;;
21206;SDS011;10761;48.532;8.026;2022-10-31T15:39:24;15.82;;;8.48;;
21206;SDS011;10761;48.532;8.026;2022-10-31T15:41:50;15.63;;;8.82;;
21206;SDS011;10761;48.532;8.026;2022-10-31T15:47:04;16.73;;;9.10;;
21206;SDS011;10761;48.532;8.026;2022-10-31T15:49:39;17.63;;;8.70;;
21206;SDS011;10761;48.532;8.026;2022-10-31T15:54:45;21.02;;;9.98;;
21206;SDS011;10761;48.532;8.026;2022-10-31T15:57:20;20.52;;;10.23;;
21206;SDS011;10761;48.532;8.026;2022-10-31T15:59:47;17.52;;;9.48;;
21206;SDS011;10761;48.532;8.026;2022-10-31T16:02:17;18.90;;;9.18;;
21206;SDS011;10761;48.532;8.026;2022-10-31T16:04:56;23.20;;;9.70;;
21206;SDS011;10761;48.532;8.026;2022-10-31T16:07:26;20.50;;;9.60;;
21206;SDS011;10761;48.532;8.026;2022-10-31T16:12:23;19.15;;;8.52;;
21206;SDS011;10761;48.532;8.026;2022-10-31T16:14:57;33.00;;;9.00;;
21206;SDS011;10761;48.532;8.026;2022-10-31T16:17:24;20.98;;;8.82;;
21206;SDS011;10761;48.532;8.026;2022-10-31T16:20:02;17.73;;;9.18;;
21206;SDS011;10761;48.532;8.026;2022-10-31T16:22:31;21.95;;;11.93;;
21206;SDS011;10761;48.532;8.026;2022-10-31T16:25:02;18.17;;;10.85;;
21206;SDS011;10761;48.532;8.026;2022-10-31T16:27:33;17.90;;;10.85;;
21206;SDS011;10761;48.532;8.026;2022-10-31T16:30:02;17.58;;;10.68;;
21206;SDS011;10761;48.532;8.026;2022-10-31T16:35:25;22.10;;;11.90;;
21206;SDS011;10761;48.532;8.026;2022-10-31T16:37:59;16.77;;;10.15;;
21206;SDS011;10761;48.532;8.026;2022-10-31T16:40:24;19.50;;;9.82;;
21206;SDS011;10761;48.532;8.026;2022-10-31T16:42:50;23.00;;;9.13;;
21206;SDS011;10761;48.532;8.026;2022-10-31T16:45:21;14.07;;;8.80;;
21206;SDS011;10761;48.532;8.026;2022-10-31T16:47:48;13.70;;;8.50;;
21206;SDS011;10761;48.532;8.026;2022-10-31T16:50:24;14.70;;;7.57;;
21206;SDS011;10761;48.532;8.026;2022-10-31T16:52:52;19.73;;;9.38;;
21206;SDS011;10761;48.532;8.026;2022-10-31T16:55:18;19.42;;;9.93;;
21206;SDS011;10761;48.532;8.026;2022-10-31T16:57:46;19.90;;;10.68;;
21206;SDS011;10761;48.532;8.026;2022-10-31T17:00:15;20.02;;;10.45;;
21206;SDS011;10761;48.532;8.026;2022-10-31T17:02:43;22.23;;;11.05;;
21206;SDS011;10761;48.532;8.026;2022-10-31T17:05:11;21.20;;;10.85;;
21206;SDS011;10761;48.532;8.026;2022-10-31T17:07:38;30.58;;;18.90;;
21206;SDS011;10761;48.532;8.026;2022-10-31T17:10:29;28.55;;;15.30;;
21206;SDS011;10761;48.532;8.026;2022-10-31T17:12:55;18.67;;;11.85;;
21206;SDS011;10761;48.532;8.026;2022-10-31T17:15:24;17.98;;;10.98;;
21206;SDS011;10761;48.532;8.026;2022-10-31T17:17:55;19.02;;;10.40;;